createdAt,value
2018-09-06T00:01:37.239Z,99032.00
2018-09-06T00:04:07.543Z,99039.00
2018-09-06T00:06:38.048Z,99033.00
2018-09-06T00:09:09.704Z,99027.00
2018-09-06T00:11:40.278Z,99033.00
2018-09-06T00:14:10.702Z,99037.00
2018-09-06T00:16:42.048Z,99038.00
2018-09-06T00:19:12.060Z,99032.00
2018-09-06T00:21:42.292Z,99040.00
2018-09-06T00:24:12.885Z,99034.00
2018-09-06T00:26:43.434Z,99021.00
2018-09-06T00:29:13.740Z,99016.00
2018-09-06T00:31:43.769Z,99021.00
2018-09-06T00:34:14.151Z,99022.00
2018-09-06T00:36:44.573Z,99021.00
2018-09-06T00:39:14.847Z,99021.00
2018-09-06T00:41:44.945Z,99020.00
2018-09-06T00:44:15.379Z,99011.00
2018-09-06T00:46:45.761Z,99006.00
2018-09-06T00:49:16.184Z,99005.00
2018-09-06T00:51:46.386Z,99010.00
2018-09-06T00:54:16.627Z,99014.00
2018-09-06T00:56:47.096Z,99018.00
2018-09-06T00:59:21.938Z,99014.00
2018-09-06T01:01:54.015Z,99014.00
2018-09-06T01:04:25.586Z,99011.00
2018-09-06T01:06:57.273Z,99010.00
2018-09-06T01:09:29.261Z,99004.00
2018-09-06T01:12:01.337Z,99008.00
2018-09-06T01:14:32.744Z,99007.00
2018-09-06T01:17:04.478Z,99012.00
2018-09-06T01:19:36.425Z,99012.00
2018-09-06T01:22:07.959Z,99018.00
2018-09-06T01:24:39.640Z,99020.00
2018-09-06T01:27:11.412Z,99013.00
2018-09-06T01:29:43.174Z,99011.00
2018-09-06T01:32:14.286Z,99018.00
2018-09-06T01:34:46.430Z,99013.00
2018-09-06T01:37:18.200Z,99014.00
2018-09-06T01:39:49.732Z,99015.00
2018-09-06T01:42:20.899Z,99010.00
2018-09-06T01:44:52.785Z,99010.00
2018-09-06T01:47:24.060Z,99005.00
2018-09-06T01:49:55.781Z,98998.00
2018-09-06T01:52:27.324Z,99000.00
2018-09-06T01:54:59.181Z,99000.00
2018-09-06T01:57:31.351Z,98999.00
2018-09-06T02:00:02.768Z,98998.00
2018-09-06T02:02:34.368Z,98998.00
2018-09-06T02:05:06.004Z,98995.00
2018-09-06T02:07:37.384Z,98997.00
2018-09-06T02:10:09.337Z,98988.00
2018-09-06T02:12:41.092Z,98990.00
2018-09-06T02:15:12.945Z,98982.00
2018-09-06T02:17:44.452Z,98982.00
2018-09-06T02:20:15.484Z,98981.00
2018-09-06T02:22:47.915Z,98982.00
2018-09-06T02:25:19.860Z,98982.00
2018-09-06T02:27:51.790Z,98986.00
2018-09-06T02:30:22.973Z,98986.00
2018-09-06T02:32:54.489Z,98984.00
2018-09-06T02:35:25.904Z,98985.00
2018-09-06T02:37:57.430Z,98983.00
2018-09-06T02:40:33.847Z,98988.00
2018-09-06T02:43:04.714Z,98987.00
2018-09-06T02:45:36.445Z,98984.00
2018-09-06T02:48:08.340Z,98984.00
2018-09-06T02:50:45.062Z,98979.00
2018-09-06T02:53:15.750Z,98978.00
2018-09-06T02:55:47.495Z,98977.00
2018-09-06T02:58:18.784Z,98979.00
2018-09-06T03:00:50.390Z,98981.00
2018-09-06T03:03:21.360Z,98980.00
2018-09-06T03:05:53.473Z,98976.00
2018-09-06T03:08:24.811Z,98981.00
2018-09-06T03:12:01.072Z,98977.00
2018-09-06T03:14:31.780Z,98975.00
2018-09-06T03:17:03.710Z,98973.00
2018-09-06T03:19:35.840Z,98977.00
2018-09-06T03:22:07.737Z,98971.00
2018-09-06T03:24:38.242Z,98976.00
2018-09-06T03:27:09.955Z,98980.00
2018-09-06T03:29:41.727Z,98981.00
2018-09-06T03:32:13.393Z,98981.00
2018-09-06T03:34:44.943Z,98984.00
2018-09-06T03:37:16.778Z,98986.00
2018-09-06T03:39:48.756Z,98990.00
2018-09-06T03:42:20.380Z,98989.00
2018-09-06T03:44:51.430Z,98991.00
2018-09-06T03:47:23.107Z,98991.00
2018-09-06T03:49:54.080Z,98998.00
2018-09-06T03:52:25.456Z,99002.00
2018-09-06T03:54:56.798Z,99004.00
2018-09-06T03:57:28.023Z,99010.00
2018-09-06T03:59:59.449Z,99012.00
2018-09-06T04:02:30.426Z,99015.00
2018-09-06T04:05:02.303Z,99012.00
2018-09-06T04:07:33.963Z,99016.00
2018-09-06T04:10:05.252Z,99025.00
2018-09-06T04:12:36.188Z,99024.00
2018-09-06T04:15:06.722Z,99027.00
2018-09-06T04:17:38.127Z,99033.00
2018-09-06T04:20:09.365Z,99029.00
2018-09-06T04:22:43.371Z,99037.00
2018-09-06T04:25:14.759Z,99038.00
2018-09-06T04:27:45.074Z,99041.00
2018-09-06T04:30:15.493Z,99036.00
2018-09-06T04:32:45.724Z,99042.00
2018-09-06T04:35:16.160Z,99041.00
2018-09-06T04:37:46.388Z,99041.00
2018-09-06T04:40:16.625Z,99042.00
2018-09-06T04:42:46.800Z,99040.00
2018-09-06T04:45:16.823Z,99040.00
2018-09-06T04:47:47.129Z,99044.00
2018-09-06T04:50:17.215Z,99046.00
2018-09-06T04:52:47.454Z,99047.00
2018-09-06T04:55:17.754Z,99047.00
2018-09-06T04:57:47.934Z,99054.00
2018-09-06T05:00:18.132Z,99053.00
2018-09-06T05:02:48.425Z,99044.00
2018-09-06T05:05:18.611Z,99046.00
2018-09-06T05:07:48.963Z,99041.00
2018-09-06T05:10:19.358Z,99043.00
2018-09-06T05:12:49.685Z,99047.00
2018-09-06T05:15:20.183Z,99054.00
2018-09-06T05:17:50.673Z,99050.00
2018-09-06T05:20:21.046Z,99057.00
2018-09-06T05:22:51.254Z,99055.00
2018-09-06T05:25:21.626Z,99056.00
2018-09-06T05:27:51.979Z,99057.00
2018-09-06T05:30:22.045Z,99060.00
2018-09-06T05:32:52.345Z,99068.00
2018-09-06T05:35:22.700Z,99063.00
